Hauptseite
METAR-TAF:

METAR-TAF

Flughäfen :

Flughafen Kuala Namu

Medan, Sumatera Utara, Indonesien

Breite: 03-34N, Länge: 098-41E, Höhe: 25 m

Beobachtung

Neuester Wetterbericht von vor 39 Minuten, um 22:00 UTC
Windstille
Temperatur 26°C
Luftfeuchtigkeit 94%
Luftdruck 1009 hPa
Sichtweite: 6000 m
Aufgelockert bewölkt in der Höhe von 1700 ft

METAR: WIMM 082200Z 00000KT 6000 SCT017 26/25 Q1009 NOSIG

Zeit: 05:39 (22:39 UTC)

Prognose

Neuester Wetterbericht von vor 5 Stunden und 39 Minuten, um 17:00 UTC
Gültige Prognose vom 08 um 18 UTC bis 09 um 18 UTC
Wind 3 kt aus unterschiedlichen Richtungen
Sichtweite: 3000 m
Aufgelockert bewölkt in der Höhe von 1800 ft
feuchter Dunst
Übergehend zu
vom 09 um 02 UTC bis 09 um 04 UTC
Wind 10 kt aus Nord
Sichtweite: 8000 m

TAF: WIMM 081700Z 0818/0918 VRB03KT 3000 BR SCT018 BECMG 0902/0904 36010KT 8000

Wetterbeobachtungen und Prognosen von mehr als 4000 Flughäfen (METAR und TAF Bericht).

Die verfügbaren Stationen werden durch gelbe und rote Markierungen auf der Karte dargestellt.

Führen Sie die Maus auf sie, um den Namen der Station zu sehen.

Darauf klicken, um die Beobachtung von Wetterbeobachtungen und Prognosen zu sehen.

Um die Karte zu ändern : klicken Sie auf den grünen Tasten mit einem schwarzen Kreuz Zum Vergrößern, auf den grünen Button mit einem Gedankenstrich zu verkleinern, oder auf die grünen Pfeile für benachbarte Karten.


METAR-TAF: